createdAt,value
2024-01-25T00:03:04.798Z,9.35
2024-01-25T00:07:10.141Z,9.06
2024-01-25T00:11:11.765Z,8.93
2024-01-25T00:15:14.092Z,9.19
2024-01-25T00:19:15.682Z,9.46
2024-01-25T00:23:17.311Z,9.21
2024-01-25T00:27:18.808Z,9.44
2024-01-25T00:31:20.470Z,9.14
2024-01-25T00:35:22.419Z,9.42
2024-01-25T00:39:24.492Z,9.26
2024-01-25T00:43:26.410Z,9.48
2024-01-25T00:47:28.299Z,9.45
2024-01-25T00:51:30.238Z,9.69
2024-01-25T00:55:32.203Z,9.22
2024-01-25T00:59:36.313Z,9.57
2024-01-25T01:03:38.541Z,9.71
2024-01-25T01:07:43.934Z,9.50
2024-01-25T01:11:45.707Z,9.91
2024-01-25T01:15:47.543Z,9.39
2024-01-25T01:19:49.132Z,9.83
2024-01-25T01:23:52.490Z,9.48
2024-01-25T01:27:54.137Z,9.63
2024-01-25T01:31:55.651Z,9.10
2024-01-25T01:35:57.212Z,9.16
2024-01-25T01:40:00.099Z,9.04
2024-01-25T01:44:02.466Z,9.24
2024-01-25T01:48:04.906Z,8.88
2024-01-25T01:52:08.099Z,9.47
2024-01-25T01:56:10.910Z,9.30
2024-01-25T02:00:15.817Z,9.24
2024-01-25T02:04:17.417Z,9.20
2024-01-25T02:08:19.063Z,9.22
2024-01-25T02:12:20.852Z,9.03
2024-01-25T02:16:22.526Z,9.58
2024-01-25T02:20:24.246Z,8.86
2024-01-25T02:24:25.709Z,9.47
2024-01-25T02:28:27.264Z,9.55
2024-01-25T02:32:28.882Z,9.47
2024-01-25T02:36:30.527Z,9.41
2024-01-25T02:40:32.069Z,9.17
2024-01-25T02:44:33.677Z,9.06
2024-01-25T02:48:36.047Z,9.29
2024-01-25T02:52:37.651Z,9.43
2024-01-25T02:56:39.170Z,9.25
2024-01-25T03:00:40.773Z,9.44
2024-01-25T03:04:42.449Z,9.26
2024-01-25T03:08:44.002Z,9.53
2024-01-25T03:12:45.925Z,9.16
2024-01-25T03:16:47.470Z,9.62
2024-01-25T03:20:51.924Z,9.61
2024-01-25T03:24:53.890Z,9.25
2024-01-25T03:28:55.468Z,9.04
2024-01-25T03:32:57.088Z,9.41
2024-01-25T03:36:58.572Z,9.10
2024-01-25T03:41:00.228Z,9.06
2024-01-25T03:45:01.714Z,9.54
2024-01-25T03:49:03.408Z,9.12
2024-01-25T03:53:07.311Z,9.10
2024-01-25T03:57:08.860Z,8.88
2024-01-25T04:01:10.546Z,9.42
2024-01-25T04:05:12.291Z,8.86
2024-01-25T04:09:14.504Z,9.26
2024-01-25T04:13:16.193Z,8.87
2024-01-25T04:17:17.722Z,8.82
2024-01-25T04:21:19.454Z,8.93
2024-01-25T04:25:21.058Z,9.19
2024-01-25T04:29:22.764Z,8.81
2024-01-25T04:33:24.753Z,8.83
2024-01-25T04:37:26.318Z,8.75
2024-01-25T04:41:27.806Z,8.85
2024-01-25T04:45:29.338Z,8.67
2024-01-25T04:49:31.254Z,8.44
2024-01-25T04:53:33.068Z,8.71
2024-01-25T04:57:34.562Z,8.88
2024-01-25T05:01:36.217Z,8.86
2024-01-25T05:05:37.785Z,8.71
2024-01-25T05:09:39.349Z,8.91
2024-01-25T05:13:40.837Z,8.85
2024-01-25T05:17:42.441Z,8.83
2024-01-25T05:21:45.177Z,8.91
2024-01-25T05:25:46.815Z,8.47
2024-01-25T05:29:48.320Z,8.68
2024-01-25T05:33:49.934Z,8.91
2024-01-25T05:37:52.005Z,8.97
2024-01-25T05:41:53.505Z,8.67
2024-01-25T05:45:55.194Z,8.88
2024-01-25T05:49:58.609Z,8.73
2024-01-25T05:54:00.160Z,8.84
2024-01-25T05:58:01.694Z,8.73
2024-01-25T06:02:03.797Z,8.58
2024-01-25T06:06:06.489Z,8.81
2024-01-25T06:10:08.856Z,9.08
2024-01-25T06:14:10.840Z,8.89
2024-01-25T06:18:12.455Z,8.66
2024-01-25T06:22:14.113Z,8.43
2024-01-25T06:26:15.697Z,9.18
2024-01-25T06:30:17.627Z,8.87
2024-01-25T06:34:19.299Z,9.03
2024-01-25T06:38:20.869Z,8.92
2024-01-25T06:42:22.950Z,8.65
2024-01-25T06:46:24.675Z,9.06
2024-01-25T06:50:26.426Z,8.84
2024-01-25T06:54:28.256Z,9.17
2024-01-25T06:58:31.861Z,9.03
2024-01-25T07:02:34.126Z,9.14
2024-01-25T07:06:36.610Z,9.15
2024-01-25T07:10:38.637Z,9.03
2024-01-25T07:14:40.215Z,9.60
2024-01-25T07:18:45.632Z,8.71
2024-01-25T07:22:47.245Z,9.14
2024-01-25T07:26:48.987Z,9.62
2024-01-25T07:30:51.234Z,8.59
2024-01-25T07:34:54.477Z,9.59
2024-01-25T07:38:56.075Z,9.42
2024-01-25T07:42:57.623Z,9.51
2024-01-25T07:46:59.107Z,8.62
2024-01-25T07:51:00.925Z,8.94
2024-01-25T07:55:04.469Z,8.93
2024-01-25T07:59:07.310Z,9.48
2024-01-25T08:03:11.844Z,9.27
2024-01-25T08:07:13.694Z,8.93
2024-01-25T08:11:19.620Z,9.20
2024-01-25T08:15:21.325Z,8.76
2024-01-25T08:19:23.040Z,9.58
2024-01-25T08:23:24.579Z,9.29
2024-01-25T08:27:26.311Z,9.04
2024-01-25T08:31:27.969Z,8.88
2024-01-25T08:35:29.876Z,8.90
2024-01-25T08:39:31.452Z,9.51
2024-01-25T08:43:33.361Z,9.75
2024-01-25T08:47:34.952Z,9.39
2024-01-25T08:51:37.484Z,9.03
2024-01-25T08:55:39.105Z,8.78
2024-01-25T08:59:40.642Z,9.46
2024-01-25T09:03:42.816Z,9.51
2024-01-25T09:07:44.775Z,9.31
2024-01-25T09:11:46.355Z,8.98
2024-01-25T09:15:48.272Z,9.48
2024-01-25T09:19:53.587Z,9.43
2024-01-25T09:23:55.338Z,9.88
2024-01-25T09:27:58.491Z,10.08
2024-01-25T09:32:00.317Z,9.39
2024-01-25T09:36:01.983Z,9.24
2024-01-25T09:40:05.433Z,8.79
2024-01-25T09:44:10.734Z,8.84
2024-01-25T09:48:13.097Z,8.68
2024-01-25T09:52:17.444Z,8.85
2024-01-25T09:56:21.764Z,8.50
2024-01-25T10:00:23.997Z,9.16
2024-01-25T10:04:26.424Z,8.73
2024-01-25T10:08:28.028Z,8.76
2024-01-25T10:12:29.531Z,8.56
2024-01-25T10:16:31.467Z,8.66
2024-01-25T10:20:33.509Z,9.13
2024-01-25T10:24:35.976Z,8.79
2024-01-25T10:28:37.973Z,8.88
2024-01-25T10:32:41.346Z,9.18
2024-01-25T10:36:44.217Z,9.34
2024-01-25T10:40:49.407Z,9.02
2024-01-25T10:44:52.465Z,8.75
2024-01-25T10:48:58.493Z,8.86
2024-01-25T10:53:01.915Z,9.22
2024-01-25T10:57:06.164Z,9.20
2024-01-25T11:01:15.475Z,9.11
2024-01-25T11:05:20.239Z,8.93
2024-01-25T11:09:22.789Z,8.91
2024-01-25T11:13:27.374Z,9.46
2024-01-25T11:17:34.556Z,9.28
2024-01-25T11:21:47.334Z,9.74
2024-01-25T11:25:49.474Z,9.00
2024-01-25T11:29:51.042Z,9.65
2024-01-25T11:33:53.200Z,9.21
2024-01-25T11:37:54.860Z,9.30
2024-01-25T11:41:56.448Z,9.81
2024-01-25T11:45:58.058Z,9.10
2024-01-25T11:49:59.966Z,9.24
2024-01-25T11:54:01.663Z,9.41
2024-01-25T11:58:03.555Z,9.30
2024-01-25T12:02:05.508Z,9.60
2024-01-25T12:06:10.406Z,9.38
2024-01-25T12:10:20.552Z,10.08
2024-01-25T12:14:22.124Z,10.22
2024-01-25T12:18:23.811Z,10.13
2024-01-25T12:22:28.480Z,10.31
2024-01-25T12:26:35.488Z,9.89
2024-01-25T12:30:37.171Z,9.67
2024-01-25T12:34:40.808Z,10.06
2024-01-25T12:38:42.490Z,9.65
2024-01-25T12:42:44.199Z,9.29
2024-01-25T12:46:45.763Z,9.26
2024-01-25T12:50:47.528Z,9.48
2024-01-25T12:54:49.127Z,9.67
2024-01-25T12:58:50.891Z,9.76
2024-01-25T13:02:55.410Z,9.52
2024-01-25T13:06:57.200Z,9.84
2024-01-25T13:10:58.723Z,9.52
2024-01-25T13:15:00.830Z,9.60
2024-01-25T13:19:02.877Z,9.14
2024-01-25T13:23:04.686Z,9.58
2024-01-25T13:27:06.569Z,9.17
2024-01-25T13:31:08.166Z,9.04
2024-01-25T13:35:15.398Z,9.34
2024-01-25T13:39:16.939Z,9.17
2024-01-25T13:43:19.530Z,9.02
2024-01-25T13:47:21.203Z,9.33
2024-01-25T13:51:23.068Z,9.31
2024-01-25T13:55:24.714Z,9.56
2024-01-25T13:59:26.840Z,9.38
2024-01-25T14:03:28.511Z,9.12
2024-01-25T14:07:30.043Z,9.32
2024-01-25T14:11:32.509Z,9.16
2024-01-25T14:15:34.444Z,9.55
2024-01-25T14:19:37.164Z,9.09
2024-01-25T14:23:38.874Z,9.47
2024-01-25T14:27:40.900Z,9.12
2024-01-25T14:31:42.772Z,9.75
2024-01-25T14:35:44.790Z,9.41
2024-01-25T14:39:56.597Z,9.37
2024-01-25T14:44:08.626Z,9.28
2024-01-25T14:48:10.130Z,9.62
2024-01-25T14:52:11.612Z,9.06
2024-01-25T14:56:13.816Z,9.48
2024-01-25T15:00:20.599Z,9.27
2024-01-25T15:04:22.222Z,9.00
2024-01-25T15:08:23.691Z,9.93
2024-01-25T15:12:25.246Z,9.72
2024-01-25T15:16:26.700Z,9.28
2024-01-25T15:20:29.444Z,9.06
2024-01-25T15:24:33.068Z,9.26
2024-01-25T15:28:36.227Z,9.07
2024-01-25T15:32:39.489Z,8.98
2024-01-25T15:36:44.877Z,8.97
2024-01-25T15:40:47.321Z,9.27
2024-01-25T15:44:48.819Z,9.24
2024-01-25T15:48:52.840Z,9.17
2024-01-25T15:52:57.536Z,9.55
2024-01-25T15:57:01.713Z,9.49
2024-01-25T16:01:03.560Z,8.90
2024-01-25T16:05:11.123Z,9.60
2024-01-25T16:09:13.288Z,9.27
2024-01-25T16:13:15.116Z,9.51
2024-01-25T16:17:16.707Z,9.63
2024-01-25T16:21:21.264Z,9.61
2024-01-25T16:25:23.636Z,8.71
2024-01-25T16:29:25.339Z,9.03
2024-01-25T16:33:28.072Z,9.30
2024-01-25T16:37:29.786Z,8.88
2024-01-25T16:41:31.713Z,9.16
2024-01-25T16:45:35.051Z,8.77
2024-01-25T16:49:39.030Z,9.01
2024-01-25T16:53:40.835Z,8.77
2024-01-25T16:57:42.493Z,9.08
2024-01-25T17:01:44.314Z,9.46
2024-01-25T17:05:49.493Z,9.17
2024-01-25T17:09:53.080Z,8.71
2024-01-25T17:13:55.057Z,8.64
2024-01-25T17:17:56.790Z,9.38
2024-01-25T17:21:58.798Z,9.35
2024-01-25T17:26:00.765Z,8.65
2024-01-25T17:30:05.242Z,9.12
2024-01-25T17:34:07.282Z,9.29
2024-01-25T17:38:09.468Z,8.70
2024-01-25T17:42:11.361Z,9.09
2024-01-25T17:46:13.870Z,9.31
2024-01-25T17:50:16.026Z,9.56
2024-01-25T17:54:18.151Z,9.36
2024-01-25T17:58:19.714Z,9.25
2024-01-25T18:02:21.319Z,8.75
2024-01-25T18:06:22.933Z,8.66
2024-01-25T18:10:24.773Z,9.02
2024-01-25T18:14:26.289Z,8.40
2024-01-25T18:18:27.808Z,9.38
2024-01-25T18:22:30.237Z,8.38
2024-01-25T18:26:31.984Z,8.83
2024-01-25T18:30:33.459Z,9.07
2024-01-25T18:34:35.324Z,8.73
2024-01-25T18:38:37.060Z,9.11
2024-01-25T18:42:38.687Z,8.45
2024-01-25T18:46:40.269Z,8.37
2024-01-25T18:50:42.217Z,8.82
2024-01-25T18:54:44.271Z,8.48
2024-01-25T18:58:46.305Z,8.72
2024-01-25T19:02:48.798Z,8.32
2024-01-25T19:06:55.188Z,8.10
2024-01-25T19:10:57.307Z,8.54
2024-01-25T19:15:04.350Z,9.11
2024-01-25T19:19:06.036Z,8.27
2024-01-25T19:23:07.820Z,8.37
2024-01-25T19:27:09.501Z,8.23
2024-01-25T19:31:12.057Z,7.56
2024-01-25T19:35:14.071Z,8.53
2024-01-25T19:39:16.476Z,8.56
2024-01-25T19:43:19.449Z,7.91
2024-01-25T19:47:21.036Z,7.84
2024-01-25T19:51:22.539Z,8.18
2024-01-25T19:55:24.542Z,8.05
2024-01-25T19:59:26.393Z,7.67
2024-01-25T20:03:28.741Z,7.48
2024-01-25T20:07:30.908Z,7.80
2024-01-25T20:11:32.628Z,7.51
2024-01-25T20:15:34.385Z,7.84
2024-01-25T20:19:36.518Z,7.52
2024-01-25T20:23:38.085Z,7.89
2024-01-25T20:27:40.277Z,7.66
2024-01-25T20:31:41.827Z,8.10
2024-01-25T20:35:43.340Z,8.37
2024-01-25T20:39:44.863Z,8.83
2024-01-25T20:43:46.566Z,8.15
2024-01-25T20:47:48.280Z,7.82
2024-01-25T20:51:49.783Z,7.62
2024-01-25T20:55:51.878Z,8.30
2024-01-25T20:59:53.669Z,7.20
2024-01-25T21:03:56.111Z,8.25
2024-01-25T21:07:58.134Z,7.67
2024-01-25T21:11:59.898Z,7.92
2024-01-25T21:16:02.550Z,7.18
2024-01-25T21:20:05.988Z,7.00
2024-01-25T21:24:07.758Z,7.29
2024-01-25T21:28:09.249Z,7.25
2024-01-25T21:32:11.099Z,7.35
2024-01-25T21:36:12.851Z,7.37
2024-01-25T21:40:14.384Z,6.74
2024-01-25T21:44:15.917Z,6.63
2024-01-25T21:48:17.628Z,6.93
2024-01-25T21:52:22.358Z,7.37
2024-01-25T21:56:24.228Z,7.23
2024-01-25T22:00:26.485Z,6.49
2024-01-25T22:04:28.114Z,6.89
2024-01-25T22:08:29.801Z,7.05
2024-01-25T22:12:32.375Z,6.84
2024-01-25T22:16:33.924Z,6.86
2024-01-25T22:20:35.393Z,7.06
2024-01-25T22:24:36.980Z,6.40
2024-01-25T22:28:38.475Z,6.86
2024-01-25T22:32:40.112Z,6.54
2024-01-25T22:36:41.601Z,6.14
2024-01-25T22:40:43.436Z,6.47
2024-01-25T22:44:44.889Z,6.55
2024-01-25T22:48:46.478Z,6.25
2024-01-25T22:52:48.085Z,6.34
2024-01-25T22:56:49.911Z,6.52
2024-01-25T23:00:51.766Z,6.43
2024-01-25T23:04:53.776Z,6.02
2024-01-25T23:08:55.707Z,5.95
2024-01-25T23:12:57.528Z,5.53
2024-01-25T23:16:59.121Z,5.22
2024-01-25T23:21:00.919Z,5.30
2024-01-25T23:25:03.280Z,5.52
2024-01-25T23:29:04.979Z,5.95
2024-01-25T23:33:06.516Z,6.05
2024-01-25T23:37:08.097Z,5.94
2024-01-25T23:41:09.554Z,4.83
2024-01-25T23:45:12.538Z,4.95
2024-01-25T23:49:16.672Z,4.81
2024-01-25T23:53:18.783Z,5.16
2024-01-25T23:57:20.675Z,4.82
